createdAt,value
2018-10-21T00:00:29.023Z,1022.72
2018-10-21T00:01:29.030Z,1022.72
2018-10-21T00:02:29.099Z,1022.74
2018-10-21T00:03:29.067Z,1022.73
2018-10-21T00:04:29.090Z,1022.72
2018-10-21T00:05:29.100Z,1022.74
2018-10-21T00:06:29.114Z,1022.73
2018-10-21T00:07:29.125Z,1022.76
2018-10-21T00:08:29.137Z,1022.74
2018-10-21T00:09:29.157Z,1022.75
2018-10-21T00:10:29.172Z,1022.79
2018-10-21T00:11:29.183Z,1022.78
2018-10-21T00:12:29.206Z,1022.84
2018-10-21T00:13:29.224Z,1022.82
2018-10-21T00:14:29.239Z,1022.85
2018-10-21T00:15:29.377Z,1022.83
2018-10-21T00:16:29.263Z,1022.81
2018-10-21T00:17:29.272Z,1022.84
2018-10-21T00:18:29.291Z,1022.82
2018-10-21T00:19:29.305Z,1022.82
2018-10-21T00:20:29.345Z,1022.81
2018-10-21T00:21:29.340Z,1022.79
2018-10-21T00:22:29.354Z,1022.80
2018-10-21T00:23:29.368Z,1022.80
2018-10-21T00:24:29.381Z,1022.84
2018-10-21T00:25:29.400Z,1022.79
2018-10-21T00:26:29.416Z,1022.81
2018-10-21T00:27:29.421Z,1022.84
2018-10-21T00:28:29.446Z,1022.86
2018-10-21T00:29:29.463Z,1022.87
2018-10-21T00:30:29.478Z,1022.89
2018-10-21T00:31:29.493Z,1022.89
2018-10-21T00:32:29.507Z,1022.90
2018-10-21T00:33:29.515Z,1022.91
2018-10-21T00:34:29.530Z,1022.92
2018-10-21T00:35:29.547Z,1022.87
2018-10-21T00:36:29.572Z,1022.88
2018-10-21T00:37:29.585Z,1022.84
2018-10-21T00:38:29.601Z,1022.85
2018-10-21T00:39:29.608Z,1022.85
2018-10-21T00:40:29.621Z,1022.85
2018-10-21T00:41:29.640Z,1022.89
2018-10-21T00:42:29.656Z,1022.87
2018-10-21T00:43:29.663Z,1022.88
2018-10-21T00:44:29.690Z,1022.90
2018-10-21T00:45:29.695Z,1022.90
2018-10-21T00:46:29.725Z,1022.87
2018-10-21T00:47:29.731Z,1022.89
2018-10-21T00:48:29.746Z,1022.88
2018-10-21T00:49:29.768Z,1022.92
2018-10-21T00:50:29.770Z,1022.87
2018-10-21T00:51:29.786Z,1022.87
2018-10-21T00:52:29.800Z,1022.87
2018-10-21T00:53:29.809Z,1022.81
2018-10-21T00:54:29.830Z,1022.86
2018-10-21T00:55:29.838Z,1022.82
2018-10-21T00:56:29.877Z,1022.79
2018-10-21T00:57:29.882Z,1022.82
2018-10-21T00:58:29.894Z,1022.79
2018-10-21T00:59:29.904Z,1022.83
2018-10-21T01:00:29.920Z,1022.80
2018-10-21T01:01:29.935Z,1022.82
2018-10-21T01:02:29.947Z,1022.81
2018-10-21T01:03:29.964Z,1022.82
2018-10-21T01:04:29.977Z,1022.83
2018-10-21T01:05:29.988Z,1022.80
2018-10-21T01:06:30.000Z,1022.80
2018-10-21T01:07:30.028Z,1022.84
2018-10-21T01:08:30.039Z,1022.85
2018-10-21T01:09:30.057Z,1022.85
2018-10-21T01:10:30.071Z,1022.82
2018-10-21T01:11:30.083Z,1022.84
2018-10-21T01:12:30.096Z,1022.89
2018-10-21T01:13:30.105Z,1022.89
2018-10-21T01:14:30.118Z,1022.88
2018-10-21T01:15:30.138Z,1022.90
2018-10-21T01:16:30.163Z,1022.85
2018-10-21T01:17:30.162Z,1022.90
2018-10-21T01:18:30.188Z,1022.88
2018-10-21T01:19:30.198Z,1022.87
2018-10-21T01:20:30.216Z,1022.89
2018-10-21T01:21:30.229Z,1022.88
2018-10-21T01:22:30.255Z,1022.85
2018-10-21T01:23:30.252Z,1022.87
2018-10-21T01:24:30.265Z,1022.89
2018-10-21T01:25:30.287Z,1022.86
2018-10-21T01:26:30.297Z,1022.83
2018-10-21T01:27:30.313Z,1022.83
2018-10-21T01:28:30.326Z,1022.79
2018-10-21T01:29:30.348Z,1022.78
2018-10-21T01:30:30.362Z,1022.85
2018-10-21T01:31:30.378Z,1022.85
2018-10-21T01:32:30.391Z,1022.82
2018-10-21T01:33:30.400Z,1022.85
2018-10-21T01:34:30.414Z,1022.79
2018-10-21T01:35:30.429Z,1022.78
2018-10-21T01:36:30.613Z,1022.80
2018-10-21T01:37:30.460Z,1022.76
2018-10-21T01:38:30.475Z,1022.77
2018-10-21T01:39:30.483Z,1022.78
2018-10-21T01:40:30.501Z,1022.73
2018-10-21T01:41:30.514Z,1022.75
2018-10-21T01:42:30.539Z,1022.71
2018-10-21T01:43:30.554Z,1022.72
2018-10-21T01:44:30.577Z,1022.72
2018-10-21T01:45:30.575Z,1022.70
2018-10-21T01:46:30.588Z,1022.72
2018-10-21T01:47:30.611Z,1022.67
2018-10-21T01:48:30.626Z,1022.72
2018-10-21T01:49:30.632Z,1022.72
2018-10-21T01:50:30.644Z,1022.73
2018-10-21T01:51:30.658Z,1022.73
2018-10-21T01:52:30.711Z,1022.69
2018-10-21T01:53:30.687Z,1022.66
2018-10-21T01:54:30.700Z,1022.67
2018-10-21T01:55:30.722Z,1022.68
2018-10-21T01:56:30.725Z,1022.63
2018-10-21T01:57:30.767Z,1022.64
2018-10-21T01:58:30.768Z,1022.66
2018-10-21T01:59:30.783Z,1022.63
2018-10-21T02:00:30.801Z,1022.66
2018-10-21T02:01:30.805Z,1022.62
2018-10-21T02:02:30.820Z,1022.60
2018-10-21T02:03:30.836Z,1022.58
2018-10-21T02:04:30.850Z,1022.59
2018-10-21T02:05:30.857Z,1022.60
2018-10-21T02:06:30.875Z,1022.61
2018-10-21T02:07:30.887Z,1022.66
2018-10-21T02:08:30.900Z,1022.60
2018-10-21T02:09:30.918Z,1022.62
2018-10-21T02:10:30.932Z,1022.65
2018-10-21T02:11:30.951Z,1022.65
2018-10-21T02:12:30.954Z,1022.59
2018-10-21T02:13:30.971Z,1022.62
2018-10-21T02:14:31.001Z,1022.60
2018-10-21T02:15:31.012Z,1022.58
2018-10-21T02:16:31.025Z,1022.61
2018-10-21T02:17:31.037Z,1022.59
2018-10-21T02:18:31.060Z,1022.61
2018-10-21T02:19:31.064Z,1022.63
2018-10-21T02:20:31.082Z,1022.59
2018-10-21T02:21:31.087Z,1022.59
2018-10-21T02:22:31.100Z,1022.55
2018-10-21T02:23:31.116Z,1022.56
2018-10-21T02:24:31.142Z,1022.55
2018-10-21T02:25:31.147Z,1022.54
2018-10-21T02:26:31.201Z,1022.59
2018-10-21T02:27:31.171Z,1022.62
2018-10-21T02:28:31.183Z,1022.56
2018-10-21T02:29:31.201Z,1022.62
2018-10-21T02:30:31.214Z,1022.59
2018-10-21T02:31:31.227Z,1022.60
2018-10-21T02:32:31.241Z,1022.62
2018-10-21T02:33:31.341Z,1022.63
2018-10-21T02:34:31.275Z,1022.64
2018-10-21T02:35:31.300Z,1022.64
2018-10-21T02:36:31.309Z,1022.66
2018-10-21T02:37:31.330Z,1022.68
2018-10-21T02:38:31.332Z,1022.69
2018-10-21T02:39:31.343Z,1022.67
2018-10-21T02:40:31.357Z,1022.66
2018-10-21T02:41:31.375Z,1022.70
2018-10-21T02:42:31.393Z,1022.65
2018-10-21T02:43:31.396Z,1022.71
2018-10-21T02:44:31.412Z,1022.66
2018-10-21T02:45:31.427Z,1022.65
2018-10-21T02:46:31.442Z,1022.68
2018-10-21T02:47:31.457Z,1022.69
2018-10-21T02:48:31.471Z,1022.72
2018-10-21T02:49:31.481Z,1022.75
2018-10-21T02:50:31.493Z,1022.70
2018-10-21T02:51:31.522Z,1022.75
2018-10-21T02:52:31.530Z,1022.74
2018-10-21T02:53:31.532Z,1022.74
2018-10-21T02:54:31.547Z,1022.78
2018-10-21T02:55:31.562Z,1022.80
2018-10-21T02:56:31.574Z,1022.78
2018-10-21T02:57:31.592Z,1022.81
2018-10-21T02:58:31.609Z,1022.80
2018-10-21T02:59:31.616Z,1022.80
2018-10-21T03:00:31.644Z,1022.80
2018-10-21T03:01:31.660Z,1022.78
2018-10-21T03:02:31.673Z,1022.83
2018-10-21T03:03:31.685Z,1022.85
2018-10-21T03:04:31.710Z,1022.84
2018-10-21T03:05:31.707Z,1022.85
2018-10-21T03:06:31.720Z,1022.85
2018-10-21T03:07:31.756Z,1022.84
2018-10-21T03:08:31.754Z,1022.82
2018-10-21T03:09:31.763Z,1022.83
2018-10-21T03:10:31.776Z,1022.86
2018-10-21T03:11:31.790Z,1022.84
2018-10-21T03:12:31.802Z,1022.87
2018-10-21T03:13:31.820Z,1022.91
2018-10-21T03:14:31.842Z,1022.89
2018-10-21T03:15:31.847Z,1022.85
2018-10-21T03:16:31.860Z,1022.86
2018-10-21T03:17:31.870Z,1022.82
2018-10-21T03:18:31.885Z,1022.86
2018-10-21T03:19:31.899Z,1022.84
2018-10-21T03:20:31.918Z,1022.86
2018-10-21T03:21:31.930Z,1022.88
2018-10-21T03:22:31.943Z,1022.88
2018-10-21T03:23:31.958Z,1022.87
2018-10-21T03:24:31.964Z,1022.88
2018-10-21T03:25:31.984Z,1022.87
2018-10-21T03:26:31.995Z,1022.90
2018-10-21T03:27:32.012Z,1022.87
2018-10-21T03:28:32.024Z,1022.91
2018-10-21T03:29:32.034Z,1022.94
2018-10-21T03:30:32.047Z,1022.95
2018-10-21T03:31:32.066Z,1022.92
2018-10-21T03:32:32.078Z,1022.88
2018-10-21T03:33:32.214Z,1022.88
2018-10-21T03:34:32.102Z,1022.92
2018-10-21T03:35:32.113Z,1022.89
2018-10-21T03:36:32.139Z,1022.88
2018-10-21T03:37:32.145Z,1022.91
2018-10-21T03:38:32.159Z,1022.94
2018-10-21T03:39:32.171Z,1022.91
2018-10-21T03:40:32.183Z,1022.99
2018-10-21T03:41:32.201Z,1022.99
2018-10-21T03:42:32.227Z,1022.97
2018-10-21T03:43:32.241Z,1023.04
2018-10-21T03:44:32.239Z,1023.05
2018-10-21T03:45:32.249Z,1023.03
2018-10-21T03:46:32.261Z,1022.99
2018-10-21T03:47:32.283Z,1023.04
2018-10-21T03:48:32.299Z,1023.02
2018-10-21T03:49:32.302Z,1023.08
2018-10-21T03:50:32.329Z,1023.07
2018-10-21T03:51:32.346Z,1023.11
2018-10-21T03:52:32.361Z,1023.07
2018-10-21T03:53:32.366Z,1023.12
2018-10-21T03:54:32.377Z,1023.11
2018-10-21T03:55:32.395Z,1023.13
2018-10-21T03:56:32.409Z,1023.15
2018-10-21T03:57:32.426Z,1023.18
2018-10-21T03:58:32.430Z,1023.18
2018-10-21T03:59:32.457Z,1023.18
2018-10-21T04:00:32.470Z,1023.17
2018-10-21T04:01:32.479Z,1023.17
2018-10-21T04:02:32.495Z,1023.14
2018-10-21T04:03:32.524Z,1023.10
2018-10-21T04:04:32.530Z,1023.09
2018-10-21T04:05:32.533Z,1023.11
2018-10-21T04:06:32.547Z,1023.09
2018-10-21T04:07:32.558Z,1023.10
2018-10-21T04:08:32.575Z,1023.10
2018-10-21T04:09:32.588Z,1023.08
2018-10-21T04:10:32.603Z,1023.13
2018-10-21T04:11:32.617Z,1023.13
2018-10-21T04:12:32.628Z,1023.11
2018-10-21T04:13:32.645Z,1023.15
2018-10-21T04:14:32.659Z,1023.15
2018-10-21T04:15:32.672Z,1023.15
2018-10-21T04:16:32.684Z,1023.14
2018-10-21T04:17:32.697Z,1023.19
2018-10-21T04:18:32.708Z,1023.18
2018-10-21T04:19:32.727Z,1023.17
2018-10-21T04:20:32.740Z,1023.22
2018-10-21T04:21:32.750Z,1023.22
2018-10-21T04:22:32.764Z,1023.18
2018-10-21T04:23:32.774Z,1023.16
2018-10-21T04:24:32.788Z,1023.16
2018-10-21T04:25:32.812Z,1023.15
2018-10-21T04:26:32.808Z,1023.18
2018-10-21T04:27:32.831Z,1023.16
2018-10-21T04:28:32.845Z,1023.14
2018-10-21T04:29:32.851Z,1023.15
2018-10-21T04:30:32.864Z,1023.13
2018-10-21T04:31:32.887Z,1023.16
2018-10-21T04:32:32.901Z,1023.11
2018-10-21T04:33:32.898Z,1023.09
2018-10-21T04:34:32.911Z,1023.09
2018-10-21T04:35:33.064Z,1023.08
2018-10-21T04:36:32.943Z,1023.08
2018-10-21T04:37:32.952Z,1023.07
2018-10-21T04:38:32.967Z,1023.10
2018-10-21T04:39:32.982Z,1023.06
2018-10-21T04:40:32.994Z,1023.07
2018-10-21T04:41:33.012Z,1023.05
2018-10-21T04:42:33.027Z,1023.07
2018-10-21T04:43:33.033Z,1023.03
2018-10-21T04:44:33.046Z,1023.07
2018-10-21T04:45:33.064Z,1023.08
2018-10-21T04:46:33.137Z,1023.06
2018-10-21T04:47:33.093Z,1023.11
2018-10-21T04:48:33.108Z,1023.11
2018-10-21T04:49:33.117Z,1023.14
2018-10-21T04:50:33.129Z,1023.11
2018-10-21T04:51:33.148Z,1023.10
2018-10-21T04:52:33.160Z,1023.10
2018-10-21T04:53:33.170Z,1023.09
2018-10-21T04:54:33.183Z,1023.11
2018-10-21T04:55:33.200Z,1023.10
2018-10-21T04:56:33.208Z,1023.12
2018-10-21T04:57:33.227Z,1023.09
2018-10-21T04:58:33.239Z,1023.14
2018-10-21T04:59:33.253Z,1023.13
2018-10-21T05:00:33.284Z,1023.12
2018-10-21T05:01:33.282Z,1023.13
2018-10-21T05:02:33.297Z,1023.10
2018-10-21T05:03:33.308Z,1023.11
2018-10-21T05:04:33.324Z,1023.05
2018-10-21T05:05:33.331Z,1023.04
2018-10-21T05:06:33.343Z,1023.00
2018-10-21T05:07:33.421Z,1023.04
2018-10-21T05:08:33.375Z,1023.01
2018-10-21T05:09:33.389Z,1023.02
2018-10-21T05:10:33.397Z,1023.04
2018-10-21T05:11:33.414Z,1023.06
2018-10-21T05:12:33.426Z,1023.10
2018-10-21T05:13:33.444Z,1023.10
2018-10-21T05:14:33.458Z,1023.12
2018-10-21T05:15:33.541Z,1023.21
2018-10-21T05:16:33.543Z,1023.16
2018-10-21T05:17:33.497Z,1023.17
2018-10-21T05:18:33.510Z,1023.14
2018-10-21T05:19:33.526Z,1023.18
2018-10-21T05:20:33.542Z,1023.17
2018-10-21T05:21:33.551Z,1023.19
2018-10-21T05:22:33.562Z,1023.21
2018-10-21T05:23:33.582Z,1023.17
2018-10-21T05:24:33.588Z,1023.20
2018-10-21T05:25:33.593Z,1023.16
2018-10-21T05:26:33.626Z,1023.16
2018-10-21T05:27:33.624Z,1023.15
2018-10-21T05:28:33.647Z,1023.14
2018-10-21T05:29:33.644Z,1023.16
2018-10-21T05:30:33.659Z,1023.15
2018-10-21T05:31:33.675Z,1023.12
2018-10-21T05:32:33.687Z,1023.12
2018-10-21T05:33:33.696Z,1023.13
2018-10-21T05:34:33.710Z,1023.11
2018-10-21T05:35:33.726Z,1023.15
2018-10-21T05:36:33.740Z,1023.17
2018-10-21T05:37:33.757Z,1023.15
2018-10-21T05:38:33.772Z,1023.13
2018-10-21T05:39:33.779Z,1023.16
2018-10-21T05:40:33.824Z,1023.22
2018-10-21T05:41:33.812Z,1023.21
2018-10-21T05:42:33.825Z,1023.20
2018-10-21T05:43:33.836Z,1023.24
2018-10-21T05:44:33.849Z,1023.24
2018-10-21T05:45:33.860Z,1023.24
2018-10-21T05:46:33.912Z,1023.24
2018-10-21T05:47:33.892Z,1023.26
2018-10-21T05:48:33.908Z,1023.31
2018-10-21T05:49:33.928Z,1023.28
2018-10-21T05:50:33.935Z,1023.29
2018-10-21T05:51:33.939Z,1023.28
2018-10-21T05:52:33.954Z,1023.27
2018-10-21T05:53:33.971Z,1023.26
2018-10-21T05:54:33.986Z,1023.27
2018-10-21T05:55:33.994Z,1023.24
2018-10-21T05:56:34.008Z,1023.28
2018-10-21T05:57:34.026Z,1023.27
2018-10-21T05:58:34.039Z,1023.25
2018-10-21T05:59:34.055Z,1023.24
2018-10-21T06:00:34.069Z,1023.20
2018-10-21T06:01:34.066Z,1023.24
2018-10-21T06:02:34.080Z,1023.22
2018-10-21T06:03:34.094Z,1023.28
2018-10-21T06:04:34.122Z,1023.25
2018-10-21T06:05:34.119Z,1023.27
2018-10-21T06:06:34.130Z,1023.27
2018-10-21T06:07:34.148Z,1023.30
2018-10-21T06:08:34.159Z,1023.32
2018-10-21T06:09:34.178Z,1023.28
2018-10-21T06:10:34.191Z,1023.34
2018-10-21T06:11:34.201Z,1023.34
2018-10-21T06:12:34.214Z,1023.37
2018-10-21T06:13:34.232Z,1023.36
2018-10-21T06:14:34.252Z,1023.37
2018-10-21T06:15:34.259Z,1023.36
2018-10-21T06:16:34.270Z,1023.35
2018-10-21T06:17:34.280Z,1023.44
2018-10-21T06:18:34.294Z,1023.39
2018-10-21T06:19:34.314Z,1023.42
2018-10-21T06:20:34.329Z,1023.46
2018-10-21T06:21:34.336Z,1023.40
2018-10-21T06:22:34.349Z,1023.47
2018-10-21T06:23:34.391Z,1023.51
2018-10-21T06:24:34.379Z,1023.49
2018-10-21T06:25:34.392Z,1023.49
2018-10-21T06:26:34.421Z,1023.50
2018-10-21T06:27:34.440Z,1023.51
2018-10-21T06:28:34.430Z,1023.50
2018-10-21T06:29:34.450Z,1023.58
2018-10-21T06:30:34.461Z,1023.60
2018-10-21T06:31:34.474Z,1023.63
2018-10-21T06:32:34.488Z,1023.61
2018-10-21T06:33:34.527Z,1023.64
2018-10-21T06:34:34.509Z,1023.65
2018-10-21T06:35:34.529Z,1023.67
2018-10-21T06:36:34.556Z,1023.68
2018-10-21T06:37:34.555Z,1023.70
2018-10-21T06:38:34.566Z,1023.70
2018-10-21T06:39:34.578Z,1023.72
2018-10-21T06:40:34.591Z,1023.73
2018-10-21T06:41:34.609Z,1023.73
2018-10-21T06:42:34.622Z,1023.75
2018-10-21T06:43:34.632Z,1023.78
2018-10-21T06:44:34.644Z,1023.78
2018-10-21T06:45:34.701Z,1023.76
2018-10-21T06:46:34.676Z,1023.80
2018-10-21T06:47:34.693Z,1023.84
2018-10-21T06:48:34.798Z,1023.85
2018-10-21T06:49:34.724Z,1023.85
2018-10-21T06:50:34.729Z,1023.88
2018-10-21T06:51:34.745Z,1023.87
2018-10-21T06:52:34.761Z,1023.86
2018-10-21T06:53:34.768Z,1023.88
2018-10-21T06:54:34.780Z,1023.88
2018-10-21T06:55:34.797Z,1023.90
2018-10-21T06:56:34.932Z,1023.88
2018-10-21T06:57:34.850Z,1023.85
2018-10-21T06:58:34.840Z,1023.85
2018-10-21T06:59:34.851Z,1023.84
2018-10-21T07:00:34.863Z,1023.84
2018-10-21T07:01:34.883Z,1023.83
2018-10-21T07:02:34.895Z,1023.87
2018-10-21T07:03:34.906Z,1023.85
2018-10-21T07:04:34.981Z,1023.87
2018-10-21T07:05:34.930Z,1023.85
2018-10-21T07:06:34.944Z,1023.89
2018-10-21T07:07:34.962Z,1023.92
2018-10-21T07:08:34.975Z,1023.91
2018-10-21T07:09:34.987Z,1023.95
2018-10-21T07:10:35.000Z,1023.96
2018-10-21T07:11:35.010Z,1023.91
2018-10-21T07:12:35.023Z,1023.91
2018-10-21T07:13:35.043Z,1023.93
2018-10-21T07:14:35.056Z,1023.92
2018-10-21T07:15:35.094Z,1023.93
2018-10-21T07:16:35.193Z,1023.93
2018-10-21T07:17:35.096Z,1023.89
2018-10-21T07:18:35.109Z,1023.95
2018-10-21T07:19:35.125Z,1023.91
2018-10-21T07:20:35.138Z,1023.97
2018-10-21T07:21:35.149Z,1023.93
2018-10-21T07:22:35.161Z,1023.95
2018-10-21T07:23:35.185Z,1023.96
2018-10-21T07:24:35.191Z,1023.95
2018-10-21T07:25:35.201Z,1023.97
2018-10-21T07:26:35.213Z,1023.99
2018-10-21T07:27:35.230Z,1023.96
2018-10-21T07:28:35.290Z,1023.97
2018-10-21T07:29:35.261Z,1024.02
2018-10-21T07:30:35.290Z,1023.97
2018-10-21T07:31:35.287Z,1024.00
2018-10-21T07:32:35.301Z,1024.07
2018-10-21T07:33:35.311Z,1024.12
2018-10-21T07:34:35.324Z,1024.15
2018-10-21T07:35:35.347Z,1024.16
2018-10-21T07:36:35.366Z,1024.13
2018-10-21T07:37:35.379Z,1024.20
2018-10-21T07:38:35.393Z,1024.25
2018-10-21T07:39:35.403Z,1024.28
2018-10-21T07:40:35.418Z,1024.30
2018-10-21T07:41:35.437Z,1024.29
2018-10-21T07:42:35.449Z,1024.32
2018-10-21T07:43:35.473Z,1024.31
2018-10-21T07:44:35.475Z,1024.29
2018-10-21T07:45:35.483Z,1024.30
2018-10-21T07:46:35.497Z,1024.32
2018-10-21T07:47:35.514Z,1024.30
2018-10-21T07:48:35.528Z,1024.29
2018-10-21T07:49:35.537Z,1024.27
2018-10-21T07:50:35.564Z,1024.33
2018-10-21T07:51:35.568Z,1024.29
2018-10-21T07:52:35.593Z,1024.34
2018-10-21T07:53:35.610Z,1024.26
2018-10-21T07:54:35.624Z,1024.27
2018-10-21T07:55:35.688Z,1024.25
2018-10-21T07:56:35.657Z,1024.26
2018-10-21T07:57:35.662Z,1024.29
2018-10-21T07:58:35.675Z,1024.26
2018-10-21T07:59:35.692Z,1024.26
2018-10-21T08:00:35.705Z,1024.28
2018-10-21T08:01:35.717Z,1024.30
2018-10-21T08:02:35.730Z,1024.28
2018-10-21T08:03:35.757Z,1024.28
2018-10-21T08:04:35.771Z,1024.31
2018-10-21T08:05:35.782Z,1024.31
2018-10-21T08:06:35.797Z,1024.28
2018-10-21T08:07:35.806Z,1024.28
2018-10-21T08:08:35.858Z,1024.31
2018-10-21T08:09:35.838Z,1024.31
2018-10-21T08:10:35.855Z,1024.33
2018-10-21T08:11:35.864Z,1024.34
2018-10-21T08:12:35.887Z,1024.33
2018-10-21T08:13:35.906Z,1024.33
2018-10-21T08:14:35.976Z,1024.33
2018-10-21T08:15:35.932Z,1024.31
2018-10-21T08:16:35.944Z,1024.30
2018-10-21T08:17:35.955Z,1024.30
2018-10-21T08:18:35.967Z,1024.27
2018-10-21T08:19:35.986Z,1024.28
2018-10-21T08:20:36.012Z,1024.29
2018-10-21T08:21:36.020Z,1024.31
2018-10-21T08:22:36.034Z,1024.32
2018-10-21T08:23:36.049Z,1024.24
2018-10-21T08:24:36.064Z,1024.28
2018-10-21T08:25:36.082Z,1024.29
2018-10-21T08:26:36.094Z,1024.27
2018-10-21T08:27:36.102Z,1024.20
2018-10-21T08:28:36.133Z,1024.19
2018-10-21T08:29:36.145Z,1024.20
2018-10-21T08:30:36.158Z,1024.17
2018-10-21T08:31:36.174Z,1024.14
2018-10-21T08:32:36.188Z,1024.17
2018-10-21T08:33:36.197Z,1024.19
2018-10-21T08:34:36.224Z,1024.15
2018-10-21T08:35:36.238Z,1024.18
2018-10-21T08:36:36.254Z,1024.18
2018-10-21T08:37:36.263Z,1024.16
2018-10-21T08:38:36.288Z,1024.19
2018-10-21T08:39:36.290Z,1024.22
2018-10-21T08:40:36.316Z,1024.23
2018-10-21T08:41:36.335Z,1024.23
2018-10-21T08:42:36.348Z,1024.28
2018-10-21T08:43:36.355Z,1024.33
2018-10-21T08:44:36.381Z,1024.35
2018-10-21T08:45:36.386Z,1024.36
2018-10-21T08:46:36.420Z,1024.34
2018-10-21T08:47:36.428Z,1024.37
2018-10-21T08:48:36.442Z,1024.38
2018-10-21T08:49:36.452Z,1024.37
2018-10-21T08:50:36.479Z,1024.40
2018-10-21T08:51:36.496Z,1024.39
2018-10-21T08:52:36.510Z,1024.41
2018-10-21T08:53:36.517Z,1024.43
2018-10-21T08:54:36.531Z,1024.44
2018-10-21T08:55:36.543Z,1024.40
2018-10-21T08:56:36.569Z,1024.39
2018-10-21T08:57:36.585Z,1024.37
2018-10-21T08:58:36.608Z,1024.34
2018-10-21T08:59:36.613Z,1024.36
2018-10-21T09:00:36.637Z,1024.32
2018-10-21T09:01:36.655Z,1024.32
2018-10-21T09:02:36.668Z,1024.30
2018-10-21T09:03:36.680Z,1024.33
2018-10-21T09:04:36.705Z,1024.29
2018-10-21T09:05:36.715Z,1024.30
2018-10-21T09:06:36.729Z,1024.29
2018-10-21T09:07:36.745Z,1024.34
2018-10-21T09:08:36.760Z,1024.29
2018-10-21T09:09:36.791Z,1024.29
2018-10-21T09:10:36.951Z,1024.32
2018-10-21T09:11:36.811Z,1024.32
2018-10-21T09:12:36.824Z,1024.35
2018-10-21T09:13:36.857Z,1024.32
2018-10-21T09:14:36.868Z,1024.35
2018-10-21T09:15:36.934Z,1024.33
2018-10-21T09:16:36.928Z,1024.32
2018-10-21T09:17:36.919Z,1024.30
2018-10-21T09:18:36.934Z,1024.33
2018-10-21T09:19:36.947Z,1024.31
2018-10-21T09:20:36.966Z,1024.34
2018-10-21T09:21:36.984Z,1024.35
2018-10-21T09:22:36.997Z,1024.33
2018-10-21T09:23:37.030Z,1024.30
2018-10-21T09:24:37.028Z,1024.29
2018-10-21T09:25:37.049Z,1024.30
2018-10-21T09:26:37.063Z,1024.31
2018-10-21T09:27:37.076Z,1024.27
2018-10-21T09:28:37.102Z,1024.26
2018-10-21T09:29:37.119Z,1024.27
2018-10-21T09:30:37.133Z,1024.25
2018-10-21T09:31:37.143Z,1024.24
2018-10-21T09:32:37.171Z,1024.25
2018-10-21T09:33:37.191Z,1024.26
2018-10-21T09:34:37.200Z,1024.24
2018-10-21T09:35:37.224Z,1024.26
2018-10-21T09:36:37.239Z,1024.28
2018-10-21T09:37:37.249Z,1024.27
2018-10-21T09:38:37.264Z,1024.26
2018-10-21T09:39:37.288Z,1024.27
2018-10-21T09:40:37.300Z,1024.27
2018-10-21T09:41:37.319Z,1024.33
2018-10-21T09:42:37.345Z,1024.27
2018-10-21T09:43:37.361Z,1024.31
2018-10-21T09:44:37.379Z,1024.27
2018-10-21T09:45:37.384Z,1024.30
2018-10-21T09:46:37.409Z,1024.28
2018-10-21T09:47:37.425Z,1024.25
2018-10-21T09:48:37.439Z,1024.26
2018-10-21T09:49:37.459Z,1024.27
2018-10-21T09:50:37.474Z,1024.24
2018-10-21T09:51:37.498Z,1024.24
2018-10-21T09:52:37.528Z,1024.23
2018-10-21T09:53:37.536Z,1024.20
2018-10-21T09:54:37.547Z,1024.16
2018-10-21T09:55:37.568Z,1024.17
2018-10-21T09:56:37.585Z,1024.19
2018-10-21T09:57:37.599Z,1024.20
2018-10-21T09:58:37.664Z,1024.16
2018-10-21T09:59:37.637Z,1024.16
2018-10-21T10:00:37.650Z,1024.19
2018-10-21T10:01:37.672Z,1024.16
2018-10-21T10:02:37.687Z,1024.12
2018-10-21T10:03:37.719Z,1024.14
2018-10-21T10:04:37.731Z,1024.12
2018-10-21T10:05:37.743Z,1024.09
2018-10-21T10:06:37.754Z,1024.05
2018-10-21T10:07:37.778Z,1024.07
2018-10-21T10:08:37.792Z,1024.07
2018-10-21T10:09:37.809Z,1024.05
2018-10-21T10:10:37.848Z,1024.09
2018-10-21T10:11:37.845Z,1024.02
2018-10-21T10:12:37.859Z,1024.04
2018-10-21T10:13:37.891Z,1024.07
2018-10-21T10:14:37.906Z,1024.05
2018-10-21T10:15:37.918Z,1024.04
2018-10-21T10:16:37.952Z,1024.04
2018-10-21T10:17:38.028Z,1024.01
2018-10-21T10:18:37.979Z,1023.98
2018-10-21T10:19:37.994Z,1023.96
2018-10-21T10:20:38.011Z,1024.02
2018-10-21T10:21:38.030Z,1023.97
2018-10-21T10:22:38.043Z,1023.98
2018-10-21T10:23:38.080Z,1023.93
2018-10-21T10:24:38.085Z,1023.95
2018-10-21T10:25:38.102Z,1023.98
2018-10-21T10:26:38.117Z,1023.96
2018-10-21T10:27:38.138Z,1023.98
2018-10-21T10:28:38.151Z,1023.98
2018-10-21T10:29:38.181Z,1023.94
2018-10-21T10:30:38.237Z,1023.97
2018-10-21T10:31:38.206Z,1023.94
2018-10-21T10:32:38.233Z,1023.93
2018-10-21T10:33:38.242Z,1023.92
2018-10-21T10:34:38.256Z,1023.90
2018-10-21T10:35:38.287Z,1023.87
2018-10-21T10:36:38.301Z,1023.84
2018-10-21T10:37:38.323Z,1023.83
2018-10-21T10:38:38.335Z,1023.78
2018-10-21T10:39:38.348Z,1023.77
2018-10-21T10:40:38.373Z,1023.74
2018-10-21T10:41:38.404Z,1023.74
2018-10-21T10:42:38.417Z,1023.73
2018-10-21T10:43:38.429Z,1023.73
2018-10-21T10:44:38.442Z,1023.74
2018-10-21T10:45:38.490Z,1023.76
2018-10-21T10:46:38.487Z,1023.73
2018-10-21T10:47:38.511Z,1023.72
2018-10-21T10:48:38.523Z,1023.71
2018-10-21T10:49:38.535Z,1023.69
2018-10-21T10:50:38.560Z,1023.73
2018-10-21T10:51:38.578Z,1023.70
2018-10-21T10:52:38.616Z,1023.70
2018-10-21T10:53:38.615Z,1023.65
2018-10-21T10:54:38.627Z,1023.65
2018-10-21T10:55:38.650Z,1023.67
2018-10-21T10:56:38.665Z,1023.63
2018-10-21T10:57:38.683Z,1023.60
2018-10-21T10:58:38.709Z,1023.63
2018-10-21T10:59:38.759Z,1023.62
2018-10-21T11:00:38.745Z,1023.59
2018-10-21T11:01:38.762Z,1023.63
2018-10-21T11:02:38.787Z,1023.59
2018-10-21T11:03:38.803Z,1023.61
2018-10-21T11:04:38.821Z,1023.59
2018-10-21T11:05:38.838Z,1023.56
2018-10-21T11:06:38.865Z,1023.56
2018-10-21T11:07:38.879Z,1023.58
2018-10-21T11:08:38.894Z,1023.51
2018-10-21T11:09:38.916Z,1023.50
2018-10-21T11:10:38.929Z,1023.49
2018-10-21T11:11:38.957Z,1023.49
2018-10-21T11:12:38.970Z,1023.50
2018-10-21T11:13:38.991Z,1023.50
2018-10-21T11:14:39.033Z,1023.46
2018-10-21T11:15:39.036Z,1023.45
2018-10-21T11:16:39.050Z,1023.45
2018-10-21T11:17:39.068Z,1023.43
2018-10-21T11:18:39.094Z,1023.47
2018-10-21T11:19:39.105Z,1023.45
2018-10-21T11:20:39.121Z,1023.41
2018-10-21T11:21:39.149Z,1023.41
2018-10-21T11:22:39.259Z,1023.38
2018-10-21T11:23:39.186Z,1023.38
2018-10-21T11:24:39.199Z,1023.40
2018-10-21T11:25:39.209Z,1023.42
2018-10-21T11:26:39.249Z,1023.40
2018-10-21T11:27:39.247Z,1023.40
2018-10-21T11:28:39.274Z,1023.41
2018-10-21T11:29:39.289Z,1023.41
2018-10-21T11:30:39.316Z,1023.40
2018-10-21T11:31:39.325Z,1023.40
2018-10-21T11:32:39.352Z,1023.39
2018-10-21T11:33:39.389Z,1023.40
2018-10-21T11:34:39.383Z,1023.42
2018-10-21T11:35:39.411Z,1023.39
2018-10-21T11:36:39.437Z,1023.40
2018-10-21T11:37:39.512Z,1023.36
2018-10-21T11:38:39.459Z,1023.36
2018-10-21T11:39:39.487Z,1023.33
2018-10-21T11:40:39.507Z,1023.35
2018-10-21T11:41:39.523Z,1023.36
2018-10-21T11:42:39.542Z,1023.36
2018-10-21T11:43:39.568Z,1023.32
2018-10-21T11:44:39.577Z,1023.37
2018-10-21T11:45:39.655Z,1023.34
2018-10-21T11:46:39.625Z,1023.33
2018-10-21T11:47:39.636Z,1023.35
2018-10-21T11:48:39.663Z,1023.30
2018-10-21T11:49:39.679Z,1023.26
2018-10-21T11:50:39.697Z,1023.31
2018-10-21T11:51:39.708Z,1023.28
2018-10-21T11:52:39.840Z,1023.31
2018-10-21T11:53:39.779Z,1023.25
2018-10-21T11:54:39.778Z,1023.30
2018-10-21T11:55:39.789Z,1023.26
2018-10-21T11:56:39.816Z,1023.26
2018-10-21T11:57:39.833Z,1023.26
2018-10-21T11:58:39.847Z,1023.26
2018-10-21T11:59:39.873Z,1023.25
2018-10-21T12:00:39.885Z,1023.28
2018-10-21T12:01:39.906Z,1023.27
2018-10-21T12:02:39.919Z,1023.23
2018-10-21T12:03:39.950Z,1023.27
2018-10-21T12:04:39.963Z,1023.21
2018-10-21T12:05:39.985Z,1023.20